KSHR

Sheridan County Airport

Sheridan, Wyoming, USA
METAR KSHR 151853Z AUTO 00000KT 10SM OVC012 M05/M08 A2964 RMK AO2 SLP077 T10501078
Observed Flight Rules
Feb-15 @ 18:53 UTC (14 minutes ago) Marginal Visual Flight Rules
Visibility Clouds
10 miles
  • Overcast at 1,200' AGL
Temperatures Readings
Current -5°C / 23°F
Dewpoint -8°C / 18°F
Humidity 80%
Altimeter 29.64" Hg
Pressure 1007.7 hPa
Elevation 1202
METAR KSHR 151853Z AUTO 00000KT 10SM OVC012 M05/M08 A2964 RMK AO2 SLP077 T10501078
Observed Flight Rules
Feb-15 @ 18:53 UTC
(14 minutes ago)
MVFR
Clouds
  • Overcast at 1,200' AGL
Temperature Dewpoint
-5°C / 23°F -8°C / 18°F
Humidity Altimeter Pressure
80% 29.64" Hg 1007.7 hPa